sensor_id;sensor_type;location;lat;lon;timestamp;P1;durP1;ratioP1;P2;durP2;ratioP2
27684;SDS011;46113;50.130;8.526;2023-03-01T05:02:10;13.95;;;7.20;;
27684;SDS011;46113;50.130;8.526;2023-03-01T05:04:37;16.92;;;8.70;;
27684;SDS011;46113;50.130;8.526;2023-03-01T05:07:05;11.48;;;7.00;;
27684;SDS011;46113;50.130;8.526;2023-03-01T05:09:32;17.63;;;9.20;;
27684;SDS011;46113;50.130;8.526;2023-03-01T05:11:58;15.20;;;7.97;;
27684;SDS011;46113;50.130;8.526;2023-03-01T05:14:25;12.43;;;8.20;;
27684;SDS011;46113;50.130;8.526;2023-03-01T05:16:51;13.95;;;8.70;;
27684;SDS011;46113;50.130;8.526;2023-03-01T05:19:18;18.20;;;8.57;;
27684;SDS011;46113;50.130;8.526;2023-03-01T05:21:49;18.92;;;8.98;;
27684;SDS011;46113;50.130;8.526;2023-03-01T05:24:32;19.80;;;8.20;;
27684;SDS011;46113;50.130;8.526;2023-03-01T05:27:00;13.80;;;7.78;;
27684;SDS011;46113;50.130;8.526;2023-03-01T05:29:29;14.38;;;7.18;;
27684;SDS011;46113;50.130;8.526;2023-03-01T05:31:58;18.30;;;8.25;;
27684;SDS011;46113;50.130;8.526;2023-03-01T05:34:31;9.95;;;6.70;;
27684;SDS011;46113;50.130;8.526;2023-03-01T05:36:59;18.23;;;7.78;;
27684;SDS011;46113;50.130;8.526;2023-03-01T05:39:26;22.65;;;9.55;;
27684;SDS011;46113;50.130;8.526;2023-03-01T05:41:55;17.17;;;9.38;;
27684;SDS011;46113;50.130;8.526;2023-03-01T05:44:23;18.63;;;9.18;;
27684;SDS011;46113;50.130;8.526;2023-03-01T05:46:51;16.08;;;7.95;;
27684;SDS011;46113;50.130;8.526;2023-03-01T05:49:18;14.85;;;8.88;;
27684;SDS011;46113;50.130;8.526;2023-03-01T05:51:49;13.90;;;7.03;;
27684;SDS011;46113;50.130;8.526;2023-03-01T05:54:17;16.58;;;8.45;;
27684;SDS011;46113;50.130;8.526;2023-03-01T05:56:45;19.48;;;9.48;;
27684;SDS011;46113;50.130;8.526;2023-03-01T05:59:21;21.05;;;9.15;;
27684;SDS011;46113;50.130;8.526;2023-03-01T06:01:48;23.75;;;9.20;;
27684;SDS011;46113;50.130;8.526;2023-03-01T06:04:14;23.20;;;10.35;;
27684;SDS011;46113;50.130;8.526;2023-03-01T06:06:41;19.17;;;9.43;;
27684;SDS011;46113;50.130;8.526;2023-03-01T06:09:08;13.02;;;8.82;;
27684;SDS011;46113;50.130;8.526;2023-03-01T06:11:39;17.73;;;8.75;;
27684;SDS011;46113;50.130;8.526;2023-03-01T06:14:09;17.50;;;8.02;;
27684;SDS011;46113;50.130;8.526;2023-03-01T06:16:36;13.52;;;8.75;;
27684;SDS011;46113;50.130;8.526;2023-03-01T06:19:42;21.40;;;10.43;;
27684;SDS011;46113;50.130;8.526;2023-03-01T06:23:07;14.90;;;8.02;;
27684;SDS011;46113;50.130;8.526;2023-03-01T06:25:36;16.67;;;8.60;;
27684;SDS011;46113;50.130;8.526;2023-03-01T06:28:06;15.35;;;8.60;;
27684;SDS011;46113;50.130;8.526;2023-03-01T06:30:32;13.65;;;7.88;;
27684;SDS011;46113;50.130;8.526;2023-03-01T06:33:00;16.60;;;8.52;;
27684;SDS011;46113;50.130;8.526;2023-03-01T06:35:29;26.67;;;9.82;;
27684;SDS011;46113;50.130;8.526;2023-03-01T06:38:01;21.70;;;10.05;;
27684;SDS011;46113;50.130;8.526;2023-03-01T06:40:29;16.42;;;9.20;;
27684;SDS011;46113;50.130;8.526;2023-03-01T06:43:06;16.63;;;9.07;;
27684;SDS011;46113;50.130;8.526;2023-03-01T06:45:55;15.55;;;8.77;;
27684;SDS011;46113;50.130;8.526;2023-03-01T06:49:00;17.75;;;8.35;;
27684;SDS011;46113;50.130;8.526;2023-03-01T06:51:26;15.57;;;10.35;;
27684;SDS011;46113;50.130;8.526;2023-03-01T06:53:53;14.25;;;8.85;;
27684;SDS011;46113;50.130;8.526;2023-03-01T06:56:19;17.38;;;9.30;;
27684;SDS011;46113;50.130;8.526;2023-03-01T06:58:46;15.30;;;8.45;;
27684;SDS011;46113;50.130;8.526;2023-03-01T08:43:59;13.75;;;7.50;;
27684;SDS011;46113;50.130;8.526;2023-03-01T08:46:30;11.77;;;7.80;;
27684;SDS011;46113;50.130;8.526;2023-03-01T08:48:59;15.63;;;8.02;;
27684;SDS011;46113;50.130;8.526;2023-03-01T08:51:26;11.65;;;8.07;;
27684;SDS011;46113;50.130;8.526;2023-03-01T08:53:52;12.85;;;6.90;;
27684;SDS011;46113;50.130;8.526;2023-03-01T08:56:19;11.43;;;6.45;;
27684;SDS011;46113;50.130;8.526;2023-03-01T08:58:46;9.90;;;6.65;;
27684;SDS011;46113;50.130;8.526;2023-03-01T09:01:16;10.07;;;6.28;;
27684;SDS011;46113;50.130;8.526;2023-03-01T09:03:44;11.43;;;6.93;;
27684;SDS011;46113;50.130;8.526;2023-03-01T09:06:11;10.88;;;6.55;;
27684;SDS011;46113;50.130;8.526;2023-03-01T09:08:39;10.77;;;5.85;;
27684;SDS011;46113;50.130;8.526;2023-03-01T09:11:09;10.10;;;5.97;;
27684;SDS011;46113;50.130;8.526;2023-03-01T09:13:37;12.25;;;6.38;;
27684;SDS011;46113;50.130;8.526;2023-03-01T09:16:04;9.02;;;5.78;;
27684;SDS011;46113;50.130;8.526;2023-03-01T09:18:33;11.32;;;6.35;;
27684;SDS011;46113;50.130;8.526;2023-03-01T09:23:37;10.57;;;6.10;;
27684;SDS011;46113;50.130;8.526;2023-03-01T09:26:09;12.18;;;6.15;;
27684;SDS011;46113;50.130;8.526;2023-03-01T09:28:37;14.82;;;6.50;;
27684;SDS011;46113;50.130;8.526;2023-03-01T09:31:06;9.48;;;6.45;;
27684;SDS011;46113;50.130;8.526;2023-03-01T09:33:33;9.45;;;6.22;;
27684;SDS011;46113;50.130;8.526;2023-03-01T09:36:00;8.48;;;5.55;;
27684;SDS011;46113;50.130;8.526;2023-03-01T09:38:30;11.52;;;5.82;;
27684;SDS011;46113;50.130;8.526;2023-03-01T09:40:57;10.82;;;5.68;;
27684;SDS011;46113;50.130;8.526;2023-03-01T09:46:04;10.43;;;5.65;;
27684;SDS011;46113;50.130;8.526;2023-03-01T09:48:38;9.32;;;5.05;;
27684;SDS011;46113;50.130;8.526;2023-03-01T09:51:12;7.35;;;5.20;;
27684;SDS011;46113;50.130;8.526;2023-03-01T09:53:45;14.65;;;6.78;;
27684;SDS011;46113;50.130;8.526;2023-03-01T09:56:22;8.98;;;5.13;;
27684;SDS011;46113;50.130;8.526;2023-03-01T10:01:52;7.03;;;4.85;;
27684;SDS011;46113;50.130;8.526;2023-03-01T10:04:39;6.35;;;4.53;;
27684;SDS011;46113;50.130;8.526;2023-03-01T10:07:17;7.68;;;4.78;;
27684;SDS011;46113;50.130;8.526;2023-03-01T10:10:05;6.28;;;3.97;;
27684;SDS011;46113;50.130;8.526;2023-03-01T10:12:34;7.20;;;4.43;;
27684;SDS011;46113;50.130;8.526;2023-03-01T10:17:38;10.90;;;5.90;;
27684;SDS011;46113;50.130;8.526;2023-03-01T10:22:48;9.30;;;5.78;;
27684;SDS011;46113;50.130;8.526;2023-03-01T10:28:26;7.38;;;4.53;;
27684;SDS011;46113;50.130;8.526;2023-03-01T10:30:57;8.63;;;5.15;;
27684;SDS011;46113;50.130;8.526;2023-03-01T10:33:26;7.20;;;4.80;;
27684;SDS011;46113;50.130;8.526;2023-03-01T10:35:57;9.10;;;5.13;;
27684;SDS011;46113;50.130;8.526;2023-03-01T10:38:24;11.63;;;5.93;;
27684;SDS011;46113;50.130;8.526;2023-03-01T10:43:26;7.45;;;4.90;;
27684;SDS011;46113;50.130;8.526;2023-03-01T10:45:58;9.82;;;5.85;;
27684;SDS011;46113;50.130;8.526;2023-03-01T10:48:25;9.23;;;5.53;;
27684;SDS011;46113;50.130;8.526;2023-03-01T10:53:34;9.65;;;6.10;;
27684;SDS011;46113;50.130;8.526;2023-03-01T10:58:37;12.98;;;5.88;;
27684;SDS011;46113;50.130;8.526;2023-03-01T11:01:06;7.35;;;4.57;;
27684;SDS011;46113;50.130;8.526;2023-03-01T11:04:03;12.25;;;4.47;;
27684;SDS011;46113;50.130;8.526;2023-03-01T11:06:38;9.57;;;5.03;;
27684;SDS011;46113;50.130;8.526;2023-03-01T11:11:44;10.13;;;6.18;;
27684;SDS011;46113;50.130;8.526;2023-03-01T11:17:28;10.82;;;5.45;;
27684;SDS011;46113;50.130;8.526;2023-03-01T11:22:44;11.52;;;6.63;;
27684;SDS011;46113;50.130;8.526;2023-03-01T11:25:15;12.80;;;6.55;;
27684;SDS011;46113;50.130;8.526;2023-03-01T11:27:45;9.65;;;5.43;;
27684;SDS011;46113;50.130;8.526;2023-03-01T11:30:27;9.55;;;6.18;;
27684;SDS011;46113;50.130;8.526;2023-03-01T11:35:27;9.35;;;6.75;;
27684;SDS011;46113;50.130;8.526;2023-03-01T11:43:01;10.45;;;6.40;;
27684;SDS011;46113;50.130;8.526;2023-03-01T11:45:39;9.63;;;6.28;;
27684;SDS011;46113;50.130;8.526;2023-03-01T11:51:33;10.55;;;6.28;;
27684;SDS011;46113;50.130;8.526;2023-03-01T11:57:22;10.18;;;6.05;;
27684;SDS011;46113;50.130;8.526;2023-03-01T12:22:02;10.88;;;6.18;;
27684;SDS011;46113;50.130;8.526;2023-03-01T12:38:42;8.75;;;5.10;;
27684;SDS011;46113;50.130;8.526;2023-03-01T12:46:41;9.02;;;5.70;;
27684;SDS011;46113;50.130;8.526;2023-03-01T12:49:13;13.38;;;5.85;;
27684;SDS011;46113;50.130;8.526;2023-03-01T12:51:44;11.13;;;4.93;;
27684;SDS011;46113;50.130;8.526;2023-03-01T12:54:30;11.70;;;6.72;;
27684;SDS011;46113;50.130;8.526;2023-03-01T12:57:08;8.57;;;5.72;;
27684;SDS011;46113;50.130;8.526;2023-03-01T13:02:53;10.88;;;6.30;;
27684;SDS011;46113;50.130;8.526;2023-03-01T13:05:37;12.02;;;5.85;;
27684;SDS011;46113;50.130;8.526;2023-03-01T13:08:29;17.98;;;6.20;;
27684;SDS011;46113;50.130;8.526;2023-03-01T13:11:03;9.30;;;5.78;;
27684;SDS011;46113;50.130;8.526;2023-03-01T13:13:33;8.48;;;5.10;;
27684;SDS011;46113;50.130;8.526;2023-03-01T13:16:19;12.40;;;6.75;;
27684;SDS011;46113;50.130;8.526;2023-03-01T13:19:06;9.68;;;6.18;;
27684;SDS011;46113;50.130;8.526;2023-03-01T13:21:36;16.35;;;6.15;;
27684;SDS011;46113;50.130;8.526;2023-03-01T13:24:02;9.82;;;6.07;;
27684;SDS011;46113;50.130;8.526;2023-03-01T13:26:29;12.40;;;7.05;;
27684;SDS011;46113;50.130;8.526;2023-03-01T13:28:57;9.63;;;5.90;;
27684;SDS011;46113;50.130;8.526;2023-03-01T13:33:54;9.80;;;5.82;;
27684;SDS011;46113;50.130;8.526;2023-03-01T13:43:41;10.15;;;5.07;;
27684;SDS011;46113;50.130;8.526;2023-03-01T13:46:42;8.65;;;5.68;;
27684;SDS011;46113;50.130;8.526;2023-03-01T13:49:40;9.48;;;5.78;;
27684;SDS011;46113;50.130;8.526;2023-03-01T13:53:23;9.10;;;5.68;;
27684;SDS011;46113;50.130;8.526;2023-03-01T13:57:12;9.63;;;5.38;;
27684;SDS011;46113;50.130;8.526;2023-03-01T14:00:40;9.63;;;5.60;;
27684;SDS011;46113;50.130;8.526;2023-03-01T14:04:46;11.65;;;6.65;;
27684;SDS011;46113;50.130;8.526;2023-03-01T14:15:49;8.80;;;5.72;;
27684;SDS011;46113;50.130;8.526;2023-03-01T14:18:36;11.40;;;6.15;;
27684;SDS011;46113;50.130;8.526;2023-03-01T14:21:31;7.53;;;5.80;;
27684;SDS011;46113;50.130;8.526;2023-03-01T14:24:13;14.73;;;5.68;;
27684;SDS011;46113;50.130;8.526;2023-03-01T14:26:43;14.48;;;5.85;;
27684;SDS011;46113;50.130;8.526;2023-03-01T14:29:25;10.43;;;5.70;;
27684;SDS011;46113;50.130;8.526;2023-03-01T14:31:52;9.57;;;5.95;;
27684;SDS011;46113;50.130;8.526;2023-03-01T14:34:23;11.70;;;6.80;;
27684;SDS011;46113;50.130;8.526;2023-03-01T14:36:52;9.70;;;6.05;;
27684;SDS011;46113;50.130;8.526;2023-03-01T14:39:24;11.73;;;5.97;;
27684;SDS011;46113;50.130;8.526;2023-03-01T14:41:55;12.02;;;5.60;;
27684;SDS011;46113;50.130;8.526;2023-03-01T14:44:36;9.60;;;6.03;;
27684;SDS011;46113;50.130;8.526;2023-03-01T14:47:04;10.98;;;5.63;;
27684;SDS011;46113;50.130;8.526;2023-03-01T14:49:41;10.10;;;6.53;;
27684;SDS011;46113;50.130;8.526;2023-03-01T14:52:20;12.15;;;6.72;;
27684;SDS011;46113;50.130;8.526;2023-03-01T14:54:52;11.00;;;6.22;;
27684;SDS011;46113;50.130;8.526;2023-03-01T14:57:27;12.98;;;6.72;;
27684;SDS011;46113;50.130;8.526;2023-03-01T15:00:03;11.07;;;7.72;;
27684;SDS011;46113;50.130;8.526;2023-03-01T15:02:53;12.38;;;7.20;;
27684;SDS011;46113;50.130;8.526;2023-03-01T15:05:29;12.82;;;7.35;;
27684;SDS011;46113;50.130;8.526;2023-03-01T15:08:26;12.48;;;8.02;;
27684;SDS011;46113;50.130;8.526;2023-03-01T15:11:27;13.00;;;7.55;;
27684;SDS011;46113;50.130;8.526;2023-03-01T15:14:24;11.23;;;7.38;;
27684;SDS011;46113;50.130;8.526;2023-03-01T15:20:35;13.95;;;8.05;;
27684;SDS011;46113;50.130;8.526;2023-03-01T15:23:29;14.98;;;7.25;;
27684;SDS011;46113;50.130;8.526;2023-03-01T15:26:05;15.05;;;7.90;;
27684;SDS011;46113;50.130;8.526;2023-03-01T15:29:14;12.18;;;7.30;;
27684;SDS011;46113;50.130;8.526;2023-03-01T15:32:25;12.90;;;6.95;;
27684;SDS011;46113;50.130;8.526;2023-03-01T15:38:02;15.23;;;7.80;;
27684;SDS011;46113;50.130;8.526;2023-03-01T15:40:30;13.70;;;7.97;;
27684;SDS011;46113;50.130;8.526;2023-03-01T15:43:21;13.98;;;8.50;;
27684;SDS011;46113;50.130;8.526;2023-03-01T15:46:23;14.20;;;7.78;;
27684;SDS011;46113;50.130;8.526;2023-03-01T15:48:53;11.95;;;7.00;;
27684;SDS011;46113;50.130;8.526;2023-03-01T15:51:33;13.50;;;7.88;;
27684;SDS011;46113;50.130;8.526;2023-03-01T15:54:14;14.82;;;7.38;;
27684;SDS011;46113;50.130;8.526;2023-03-01T15:56:45;11.40;;;7.57;;
27684;SDS011;46113;50.130;8.526;2023-03-01T15:59:14;14.00;;;7.65;;
27684;SDS011;46113;50.130;8.526;2023-03-01T16:01:45;12.13;;;7.35;;
27684;SDS011;46113;50.130;8.526;2023-03-01T16:04:51;13.15;;;7.28;;
27684;SDS011;46113;50.130;8.526;2023-03-01T16:07:43;11.32;;;7.05;;
27684;SDS011;46113;50.130;8.526;2023-03-01T16:10:10;14.27;;;6.32;;
27684;SDS011;46113;50.130;8.526;2023-03-01T16:12:43;14.77;;;7.28;;
27684;SDS011;46113;50.130;8.526;2023-03-01T16:17:45;12.90;;;6.95;;
27684;SDS011;46113;50.130;8.526;2023-03-01T16:20:20;14.48;;;7.38;;
27684;SDS011;46113;50.130;8.526;2023-03-01T16:22:57;13.55;;;6.95;;
27684;SDS011;46113;50.130;8.526;2023-03-01T16:25:26;13.27;;;6.80;;
27684;SDS011;46113;50.130;8.526;2023-03-01T16:27:53;13.35;;;7.18;;
27684;SDS011;46113;50.130;8.526;2023-03-01T16:30:22;9.90;;;6.63;;
27684;SDS011;46113;50.130;8.526;2023-03-01T16:32:49;12.35;;;7.15;;
27684;SDS011;46113;50.130;8.526;2023-03-01T16:35:17;12.85;;;6.55;;
27684;SDS011;46113;50.130;8.526;2023-03-01T16:37:45;13.65;;;7.25;;
27684;SDS011;46113;50.130;8.526;2023-03-01T16:40:16;12.15;;;7.18;;
27684;SDS011;46113;50.130;8.526;2023-03-01T16:42:50;14.38;;;7.13;;
27684;SDS011;46113;50.130;8.526;2023-03-01T16:45:17;9.35;;;6.85;;
27684;SDS011;46113;50.130;8.526;2023-03-01T16:47:50;14.25;;;7.50;;
27684;SDS011;46113;50.130;8.526;2023-03-01T16:50:21;14.63;;;7.68;;
27684;SDS011;46113;50.130;8.526;2023-03-01T16:52:48;14.13;;;6.80;;
27684;SDS011;46113;50.130;8.526;2023-03-01T16:55:15;14.88;;;6.82;;
27684;SDS011;46113;50.130;8.526;2023-03-01T16:57:47;14.35;;;7.63;;
27684;SDS011;46113;50.130;8.526;2023-03-01T17:00:18;14.35;;;7.70;;
27684;SDS011;46113;50.130;8.526;2023-03-01T17:03:18;11.38;;;6.50;;
27684;SDS011;46113;50.130;8.526;2023-03-01T17:10:33;14.35;;;6.50;;
27684;SDS011;46113;50.130;8.526;2023-03-01T17:13:30;14.48;;;6.88;;
27684;SDS011;46113;50.130;8.526;2023-03-01T17:16:15;13.48;;;7.43;;
27684;SDS011;46113;50.130;8.526;2023-03-01T17:19:39;11.48;;;6.63;;
27684;SDS011;46113;50.130;8.526;2023-03-01T17:22:49;14.18;;;7.18;;
27684;SDS011;46113;50.130;8.526;2023-03-01T17:25:33;15.40;;;7.45;;
27684;SDS011;46113;50.130;8.526;2023-03-01T17:28:26;12.60;;;7.53;;
27684;SDS011;46113;50.130;8.526;2023-03-01T17:30:56;12.90;;;7.63;;
27684;SDS011;46113;50.130;8.526;2023-03-01T17:33:23;9.27;;;6.53;;
27684;SDS011;46113;50.130;8.526;2023-03-01T17:35:52;10.40;;;7.22;;
27684;SDS011;46113;50.130;8.526;2023-03-01T17:38:33;16.08;;;7.72;;
27684;SDS011;46113;50.130;8.526;2023-03-01T17:41:02;12.20;;;6.70;;
27684;SDS011;46113;50.130;8.526;2023-03-01T17:43:29;11.57;;;6.65;;
27684;SDS011;46113;50.130;8.526;2023-03-01T17:45:57;12.73;;;8.02;;
27684;SDS011;46113;50.130;8.526;2023-03-01T17:48:23;11.35;;;6.57;;
27684;SDS011;46113;50.130;8.526;2023-03-01T17:50:51;12.52;;;7.50;;
27684;SDS011;46113;50.130;8.526;2023-03-01T17:53:18;20.23;;;8.02;;
27684;SDS011;46113;50.130;8.526;2023-03-01T17:55:47;15.85;;;6.40;;
27684;SDS011;46113;50.130;8.526;2023-03-01T17:58:21;15.88;;;7.10;;
27684;SDS011;46113;50.130;8.526;2023-03-01T18:00:48;18.55;;;7.72;;
27684;SDS011;46113;50.130;8.526;2023-03-01T18:03:16;15.05;;;8.98;;
27684;SDS011;46113;50.130;8.526;2023-03-01T18:05:43;14.25;;;8.07;;
27684;SDS011;46113;50.130;8.526;2023-03-01T18:08:10;15.35;;;8.27;;
27684;SDS011;46113;50.130;8.526;2023-03-01T18:10:37;18.52;;;7.65;;
27684;SDS011;46113;50.130;8.526;2023-03-01T18:13:04;12.27;;;7.57;;
27684;SDS011;46113;50.130;8.526;2023-03-01T18:15:35;13.85;;;8.57;;
27684;SDS011;46113;50.130;8.526;2023-03-01T18:18:05;16.00;;;8.70;;
27684;SDS011;46113;50.130;8.526;2023-03-01T18:20:53;24.48;;;9.73;;
27684;SDS011;46113;50.130;8.526;2023-03-01T18:23:21;28.83;;;12.88;;
27684;SDS011;46113;50.130;8.526;2023-03-01T18:25:48;26.63;;;12.55;;
27684;SDS011;46113;50.130;8.526;2023-03-01T18:28:14;27.50;;;11.55;;
27684;SDS011;46113;50.130;8.526;2023-03-01T18:30:41;17.13;;;9.40;;
27684;SDS011;46113;50.130;8.526;2023-03-01T18:33:07;18.63;;;9.48;;
27684;SDS011;46113;50.130;8.526;2023-03-01T18:35:37;17.85;;;9.52;;
27684;SDS011;46113;50.130;8.526;2023-03-01T18:38:04;18.48;;;8.65;;
27684;SDS011;46113;50.130;8.526;2023-03-01T18:40:31;18.08;;;9.07;;
27684;SDS011;46113;50.130;8.526;2023-03-01T18:42:57;12.88;;;7.38;;
27684;SDS011;46113;50.130;8.526;2023-03-01T18:45:24;16.77;;;8.95;;
27684;SDS011;46113;50.130;8.526;2023-03-01T18:47:51;16.85;;;8.77;;
27684;SDS011;46113;50.130;8.526;2023-03-01T18:50:17;19.73;;;9.63;;
27684;SDS011;46113;50.130;8.526;2023-03-01T18:52:44;14.52;;;7.25;;
27684;SDS011;46113;50.130;8.526;2023-03-01T18:55:10;15.52;;;8.20;;
27684;SDS011;46113;50.130;8.526;2023-03-01T18:57:37;13.05;;;7.53;;
27684;SDS011;46113;50.130;8.526;2023-03-01T19:00:04;12.23;;;7.75;;
27684;SDS011;46113;50.130;8.526;2023-03-01T19:02:31;16.17;;;8.35;;
27684;SDS011;46113;50.130;8.526;2023-03-01T19:04:58;11.70;;;7.43;;
27684;SDS011;46113;50.130;8.526;2023-03-01T19:07:24;18.83;;;7.78;;
27684;SDS011;46113;50.130;8.526;2023-03-01T19:09:51;10.65;;;5.80;;
27684;SDS011;46113;50.130;8.526;2023-03-01T19:12:17;13.20;;;6.32;;
27684;SDS011;46113;50.130;8.526;2023-03-01T19:14:44;10.68;;;6.15;;
27684;SDS011;46113;50.130;8.526;2023-03-01T19:17:11;16.75;;;7.47;;
27684;SDS011;46113;50.130;8.526;2023-03-01T19:19:38;14.23;;;6.35;;
27684;SDS011;46113;50.130;8.526;2023-03-01T19:22:04;14.38;;;6.20;;
27684;SDS011;46113;50.130;8.526;2023-03-01T19:24:36;13.45;;;6.70;;
27684;SDS011;46113;50.130;8.526;2023-03-01T19:27:02;10.65;;;5.85;;
27684;SDS011;46113;50.130;8.526;2023-03-01T19:29:29;15.55;;;7.22;;
27684;SDS011;46113;50.130;8.526;2023-03-01T19:31:56;13.57;;;6.68;;
27684;SDS011;46113;50.130;8.526;2023-03-01T19:34:22;16.13;;;7.93;;
27684;SDS011;46113;50.130;8.526;2023-03-01T19:36:50;11.85;;;6.60;;
27684;SDS011;46113;50.130;8.526;2023-03-01T19:39:17;14.60;;;8.05;;
27684;SDS011;46113;50.130;8.526;2023-03-01T19:41:43;13.43;;;6.65;;
27684;SDS011;46113;50.130;8.526;2023-03-01T19:44:11;14.70;;;6.95;;
27684;SDS011;46113;50.130;8.526;2023-03-01T19:46:39;10.73;;;6.95;;
27684;SDS011;46113;50.130;8.526;2023-03-01T19:49:06;16.92;;;7.32;;
27684;SDS011;46113;50.130;8.526;2023-03-01T19:51:33;12.80;;;7.22;;
27684;SDS011;46113;50.130;8.526;2023-03-01T19:54:04;12.35;;;7.18;;
27684;SDS011;46113;50.130;8.526;2023-03-01T19:56:31;11.68;;;6.20;;
27684;SDS011;46113;50.130;8.526;2023-03-01T19:58:59;14.23;;;7.95;;
27684;SDS011;46113;50.130;8.526;2023-03-01T20:01:29;13.38;;;7.88;;
27684;SDS011;46113;50.130;8.526;2023-03-01T20:03:58;12.30;;;6.90;;
27684;SDS011;46113;50.130;8.526;2023-03-01T20:06:26;17.65;;;8.50;;
27684;SDS011;46113;50.130;8.526;2023-03-01T20:08:55;15.57;;;5.88;;
27684;SDS011;46113;50.130;8.526;2023-03-01T20:11:22;10.93;;;6.43;;
27684;SDS011;46113;50.130;8.526;2023-03-01T20:13:48;15.80;;;7.32;;
27684;SDS011;46113;50.130;8.526;2023-03-01T20:16:16;17.58;;;6.57;;
27684;SDS011;46113;50.130;8.526;2023-03-01T20:18:44;12.48;;;6.72;;
27684;SDS011;46113;50.130;8.526;2023-03-01T20:21:11;11.27;;;6.75;;
27684;SDS011;46113;50.130;8.526;2023-03-01T20:23:49;13.77;;;6.85;;
27684;SDS011;46113;50.130;8.526;2023-03-01T20:26:16;14.55;;;7.72;;
27684;SDS011;46113;50.130;8.526;2023-03-01T20:28:46;13.15;;;7.40;;
27684;SDS011;46113;50.130;8.526;2023-03-01T20:31:14;13.25;;;7.15;;
27684;SDS011;46113;50.130;8.526;2023-03-01T20:33:42;14.10;;;7.25;;
27684;SDS011;46113;50.130;8.526;2023-03-01T20:36:09;11.40;;;7.00;;
27684;SDS011;46113;50.130;8.526;2023-03-01T20:38:37;16.98;;;6.90;;
27684;SDS011;46113;50.130;8.526;2023-03-01T20:41:05;11.50;;;6.28;;
27684;SDS011;46113;50.130;8.526;2023-03-01T20:43:33;15.15;;;7.63;;
27684;SDS011;46113;50.130;8.526;2023-03-01T20:46:04;16.83;;;8.05;;
27684;SDS011;46113;50.130;8.526;2023-03-01T20:48:32;21.88;;;7.47;;
27684;SDS011;46113;50.130;8.526;2023-03-01T20:51:03;12.85;;;7.28;;
27684;SDS011;46113;50.130;8.526;2023-03-01T20:53:30;18.48;;;9.00;;
27684;SDS011;46113;50.130;8.526;2023-03-01T20:56:04;21.67;;;10.10;;
27684;SDS011;46113;50.130;8.526;2023-03-01T20:58:32;16.73;;;7.80;;
27684;SDS011;46113;50.130;8.526;2023-03-01T21:01:01;14.65;;;8.68;;
27684;SDS011;46113;50.130;8.526;2023-03-01T21:03:29;15.38;;;7.45;;
27684;SDS011;46113;50.130;8.526;2023-03-01T21:05:57;12.45;;;7.55;;
27684;SDS011;46113;50.130;8.526;2023-03-01T21:08:25;16.13;;;8.52;;
27684;SDS011;46113;50.130;8.526;2023-03-01T21:10:52;13.60;;;7.30;;
27684;SDS011;46113;50.130;8.526;2023-03-01T21:13:19;11.73;;;6.85;;
27684;SDS011;46113;50.130;8.526;2023-03-01T21:15:53;12.02;;;6.80;;
27684;SDS011;46113;50.130;8.526;2023-03-01T21:18:22;16.50;;;8.50;;
27684;SDS011;46113;50.130;8.526;2023-03-01T21:20:58;15.45;;;7.28;;
27684;SDS011;46113;50.130;8.526;2023-03-01T21:23:30;12.93;;;7.00;;
27684;SDS011;46113;50.130;8.526;2023-03-01T21:26:02;9.85;;;5.88;;
27684;SDS011;46113;50.130;8.526;2023-03-01T21:28:34;12.02;;;7.60;;
27684;SDS011;46113;50.130;8.526;2023-03-01T21:31:02;19.52;;;8.23;;
27684;SDS011;46113;50.130;8.526;2023-03-01T21:33:34;22.33;;;8.02;;
27684;SDS011;46113;50.130;8.526;2023-03-01T21:36:02;20.15;;;8.98;;
27684;SDS011;46113;50.130;8.526;2023-03-01T21:38:32;16.73;;;8.75;;
27684;SDS011;46113;50.130;8.526;2023-03-01T21:41:06;11.85;;;7.22;;
27684;SDS011;46113;50.130;8.526;2023-03-01T21:43:35;17.25;;;8.13;;
27684;SDS011;46113;50.130;8.526;2023-03-01T21:46:07;15.90;;;8.07;;
27684;SDS011;46113;50.130;8.526;2023-03-01T21:48:39;16.17;;;8.82;;
27684;SDS011;46113;50.130;8.526;2023-03-01T21:51:09;25.75;;;10.27;;
27684;SDS011;46113;50.130;8.526;2023-03-01T21:53:37;24.25;;;11.23;;
27684;SDS011;46113;50.130;8.526;2023-03-01T21:56:04;19.77;;;10.38;;
27684;SDS011;46113;50.130;8.526;2023-03-01T21:58:31;23.98;;;12.40;;
